sensor_id;sensor_type;location;lat;lon;timestamp;P1;durP1;ratioP1;P2;durP2;ratioP2
54983;SDS011;40884;53.562;9.940;2023-05-17T00:00:28;11.13;;;3.33;;
54983;SDS011;40884;53.562;9.940;2023-05-17T00:01:28;12.13;;;3.23;;
54983;SDS011;40884;53.562;9.940;2023-05-17T00:02:28;13.80;;;3.40;;
54983;SDS011;40884;53.562;9.940;2023-05-17T00:03:28;13.20;;;3.63;;
54983;SDS011;40884;53.562;9.940;2023-05-17T00:04:28;13.87;;;3.77;;
54983;SDS011;40884;53.562;9.940;2023-05-17T00:05:28;16.80;;;4.27;;
54983;SDS011;40884;53.562;9.940;2023-05-17T00:06:28;13.70;;;3.83;;
54983;SDS011;40884;53.562;9.940;2023-05-17T00:07:28;13.37;;;3.73;;
54983;SDS011;40884;53.562;9.940;2023-05-17T00:08:28;12.30;;;3.30;;
54983;SDS011;40884;53.562;9.940;2023-05-17T00:09:29;12.27;;;3.93;;
54983;SDS011;40884;53.562;9.940;2023-05-17T00:10:29;11.00;;;2.97;;
54983;SDS011;40884;53.562;9.940;2023-05-17T00:11:29;10.20;;;2.90;;
54983;SDS011;40884;53.562;9.940;2023-05-17T00:12:29;6.47;;;3.20;;
54983;SDS011;40884;53.562;9.940;2023-05-17T00:13:29;11.23;;;3.80;;
54983;SDS011;40884;53.562;9.940;2023-05-17T00:14:29;10.97;;;3.43;;
54983;SDS011;40884;53.562;9.940;2023-05-17T00:15:29;14.27;;;3.77;;
54983;SDS011;40884;53.562;9.940;2023-05-17T00:16:29;14.00;;;3.70;;
54983;SDS011;40884;53.562;9.940;2023-05-17T00:17:30;14.63;;;4.27;;
54983;SDS011;40884;53.562;9.940;2023-05-17T00:18:30;10.50;;;3.00;;
54983;SDS011;40884;53.562;9.940;2023-05-17T00:19:30;11.83;;;3.70;;
54983;SDS011;40884;53.562;9.940;2023-05-17T00:20:30;11.37;;;3.30;;
54983;SDS011;40884;53.562;9.940;2023-05-17T00:21:30;13.33;;;3.77;;
54983;SDS011;40884;53.562;9.940;2023-05-17T00:22:30;15.27;;;4.10;;
54983;SDS011;40884;53.562;9.940;2023-05-17T00:23:30;12.03;;;3.30;;
54983;SDS011;40884;53.562;9.940;2023-05-17T00:24:30;12.47;;;3.93;;
54983;SDS011;40884;53.562;9.940;2023-05-17T00:25:30;18.30;;;3.37;;
54983;SDS011;40884;53.562;9.940;2023-05-17T00:26:31;11.83;;;3.67;;
54983;SDS011;40884;53.562;9.940;2023-05-17T00:27:31;15.47;;;3.97;;
54983;SDS011;40884;53.562;9.940;2023-05-17T00:28:31;13.33;;;3.33;;
54983;SDS011;40884;53.562;9.940;2023-05-17T00:29:31;16.77;;;3.93;;
54983;SDS011;40884;53.562;9.940;2023-05-17T00:30:31;14.60;;;3.47;;
54983;SDS011;40884;53.562;9.940;2023-05-17T00:31:31;12.00;;;3.30;;
54983;SDS011;40884;53.562;9.940;2023-05-17T00:32:32;12.03;;;3.40;;
54983;SDS011;40884;53.562;9.940;2023-05-17T00:33:32;11.20;;;3.80;;
54983;SDS011;40884;53.562;9.940;2023-05-17T00:34:32;15.50;;;3.27;;
54983;SDS011;40884;53.562;9.940;2023-05-17T00:35:32;12.20;;;3.47;;
54983;SDS011;40884;53.562;9.940;2023-05-17T00:36:32;15.60;;;3.70;;
54983;SDS011;40884;53.562;9.940;2023-05-17T00:37:32;14.57;;;3.67;;
54983;SDS011;40884;53.562;9.940;2023-05-17T00:38:32;12.57;;;3.80;;
54983;SDS011;40884;53.562;9.940;2023-05-17T00:39:32;11.97;;;3.40;;
54983;SDS011;40884;53.562;9.940;2023-05-17T00:40:32;12.20;;;3.00;;
54983;SDS011;40884;53.562;9.940;2023-05-17T00:41:33;13.30;;;4.13;;
54983;SDS011;40884;53.562;9.940;2023-05-17T00:42:33;13.10;;;3.20;;
54983;SDS011;40884;53.562;9.940;2023-05-17T00:43:33;11.53;;;3.47;;
54983;SDS011;40884;53.562;9.940;2023-05-17T00:44:33;12.93;;;3.70;;
54983;SDS011;40884;53.562;9.940;2023-05-17T00:45:33;13.50;;;3.43;;
54983;SDS011;40884;53.562;9.940;2023-05-17T00:46:33;12.57;;;3.63;;
54983;SDS011;40884;53.562;9.940;2023-05-17T00:47:33;10.57;;;3.50;;
54983;SDS011;40884;53.562;9.940;2023-05-17T00:48:34;14.37;;;3.73;;
54983;SDS011;40884;53.562;9.940;2023-05-17T00:49:34;12.03;;;3.67;;
54983;SDS011;40884;53.562;9.940;2023-05-17T00:50:34;11.77;;;3.30;;
54983;SDS011;40884;53.562;9.940;2023-05-17T00:51:34;11.47;;;3.10;;
54983;SDS011;40884;53.562;9.940;2023-05-17T00:52:34;14.00;;;3.67;;
54983;SDS011;40884;53.562;9.940;2023-05-17T00:53:35;13.53;;;3.23;;
54983;SDS011;40884;53.562;9.940;2023-05-17T00:54:36;11.57;;;3.03;;
54983;SDS011;40884;53.562;9.940;2023-05-17T00:55:36;12.43;;;3.57;;
54983;SDS011;40884;53.562;9.940;2023-05-17T00:56:37;15.07;;;3.33;;
54983;SDS011;40884;53.562;9.940;2023-05-17T00:57:37;12.13;;;3.07;;
54983;SDS011;40884;53.562;9.940;2023-05-17T00:58:37;12.03;;;3.07;;
54983;SDS011;40884;53.562;9.940;2023-05-17T00:59:38;16.60;;;3.70;;
54983;SDS011;40884;53.562;9.940;2023-05-17T01:00:39;14.00;;;3.17;;
54983;SDS011;40884;53.562;9.940;2023-05-17T01:01:42;11.90;;;3.10;;
54983;SDS011;40884;53.562;9.940;2023-05-17T01:02:43;11.60;;;3.30;;
54983;SDS011;40884;53.562;9.940;2023-05-17T01:03:43;13.43;;;3.77;;
54983;SDS011;40884;53.562;9.940;2023-05-17T01:04:46;13.10;;;3.27;;
54983;SDS011;40884;53.562;9.940;2023-05-17T01:05:48;14.30;;;3.40;;
54983;SDS011;40884;53.562;9.940;2023-05-17T01:06:48;16.40;;;4.33;;
54983;SDS011;40884;53.562;9.940;2023-05-17T01:07:48;15.93;;;3.67;;
54983;SDS011;40884;53.562;9.940;2023-05-17T01:08:49;13.73;;;3.83;;
54983;SDS011;40884;53.562;9.940;2023-05-17T01:09:49;15.80;;;3.73;;
54983;SDS011;40884;53.562;9.940;2023-05-17T01:10:56;13.90;;;3.73;;
54983;SDS011;40884;53.562;9.940;2023-05-17T01:13:02;14.37;;;3.47;;
54983;SDS011;40884;53.562;9.940;2023-05-17T01:14:08;9.83;;;3.80;;
54983;SDS011;40884;53.562;9.940;2023-05-17T01:15:13;13.87;;;4.43;;
54983;SDS011;40884;53.562;9.940;2023-05-17T01:16:18;13.57;;;3.30;;
54983;SDS011;40884;53.562;9.940;2023-05-17T01:17:23;9.57;;;3.10;;
54983;SDS011;40884;53.562;9.940;2023-05-17T01:19:52;13.73;;;3.97;;
54983;SDS011;40884;53.562;9.940;2023-05-17T01:20:53;12.60;;;3.60;;
54983;SDS011;40884;53.562;9.940;2023-05-17T01:22:06;14.87;;;4.23;;
54983;SDS011;40884;53.562;9.940;2023-05-17T01:25:54;13.47;;;3.83;;
54983;SDS011;40884;53.562;9.940;2023-05-17T01:26:58;14.53;;;3.40;;
54983;SDS011;40884;53.562;9.940;2023-05-17T01:27:58;15.00;;;3.43;;
54983;SDS011;40884;53.562;9.940;2023-05-17T01:28:59;14.73;;;3.33;;
54983;SDS011;40884;53.562;9.940;2023-05-17T01:30:01;15.20;;;3.70;;
54983;SDS011;40884;53.562;9.940;2023-05-17T01:31:02;11.53;;;3.30;;
54983;SDS011;40884;53.562;9.940;2023-05-17T01:32:03;14.03;;;4.23;;
54983;SDS011;40884;53.562;9.940;2023-05-17T01:33:03;13.33;;;3.17;;
54983;SDS011;40884;53.562;9.940;2023-05-17T01:34:07;15.30;;;3.67;;
54983;SDS011;40884;53.562;9.940;2023-05-17T01:35:09;13.30;;;3.10;;
54983;SDS011;40884;53.562;9.940;2023-05-17T01:36:09;11.30;;;3.13;;
54983;SDS011;40884;53.562;9.940;2023-05-17T01:37:10;12.23;;;3.53;;
54983;SDS011;40884;53.562;9.940;2023-05-17T01:38:10;12.97;;;3.57;;
54983;SDS011;40884;53.562;9.940;2023-05-17T01:39:10;15.47;;;3.70;;
54983;SDS011;40884;53.562;9.940;2023-05-17T01:40:10;12.60;;;3.23;;
54983;SDS011;40884;53.562;9.940;2023-05-17T01:41:32;10.43;;;2.90;;
54983;SDS011;40884;53.562;9.940;2023-05-17T01:42:36;17.13;;;4.07;;
54983;SDS011;40884;53.562;9.940;2023-05-17T01:43:40;11.83;;;2.93;;
54983;SDS011;40884;53.562;9.940;2023-05-17T01:44:47;12.33;;;3.13;;
54983;SDS011;40884;53.562;9.940;2023-05-17T01:45:52;16.83;;;3.93;;
54983;SDS011;40884;53.562;9.940;2023-05-17T01:46:59;13.90;;;3.50;;
54983;SDS011;40884;53.562;9.940;2023-05-17T01:48:05;14.27;;;3.47;;
54983;SDS011;40884;53.562;9.940;2023-05-17T01:50:16;13.60;;;3.07;;
54983;SDS011;40884;53.562;9.940;2023-05-17T01:51:18;10.40;;;3.03;;
54983;SDS011;40884;53.562;9.940;2023-05-17T01:52:23;15.03;;;3.73;;
54983;SDS011;40884;53.562;9.940;2023-05-17T01:53:32;12.90;;;3.03;;
54983;SDS011;40884;53.562;9.940;2023-05-17T01:54:49;14.93;;;2.77;;
54983;SDS011;40884;53.562;9.940;2023-05-17T01:55:50;12.00;;;2.80;;
54983;SDS011;40884;53.562;9.940;2023-05-17T01:56:56;11.87;;;2.97;;
54983;SDS011;40884;53.562;9.940;2023-05-17T01:57:56;10.10;;;2.43;;
54983;SDS011;40884;53.562;9.940;2023-05-17T01:58:57;11.70;;;3.77;;
54983;SDS011;40884;53.562;9.940;2023-05-17T01:59:58;10.00;;;3.07;;
54983;SDS011;40884;53.562;9.940;2023-05-17T02:01:02;10.10;;;2.77;;
54983;SDS011;40884;53.562;9.940;2023-05-17T02:02:03;13.03;;;3.37;;
54983;SDS011;40884;53.562;9.940;2023-05-17T02:03:04;15.83;;;2.93;;
54983;SDS011;40884;53.562;9.940;2023-05-17T02:04:04;8.67;;;2.53;;
54983;SDS011;40884;53.562;9.940;2023-05-17T02:05:05;8.47;;;2.20;;
54983;SDS011;40884;53.562;9.940;2023-05-17T02:06:05;13.67;;;2.47;;
54983;SDS011;40884;53.562;9.940;2023-05-17T02:07:05;9.37;;;2.33;;
54983;SDS011;40884;53.562;9.940;2023-05-17T02:08:06;12.40;;;3.37;;
54983;SDS011;40884;53.562;9.940;2023-05-17T02:09:06;12.87;;;3.23;;
54983;SDS011;40884;53.562;9.940;2023-05-17T02:10:06;15.93;;;2.67;;
54983;SDS011;40884;53.562;9.940;2023-05-17T02:11:06;10.63;;;2.67;;
54983;SDS011;40884;53.562;9.940;2023-05-17T02:12:07;10.57;;;2.33;;
54983;SDS011;40884;53.562;9.940;2023-05-17T02:13:07;9.97;;;2.53;;
54983;SDS011;40884;53.562;9.940;2023-05-17T02:14:07;10.87;;;2.23;;
54983;SDS011;40884;53.562;9.940;2023-05-17T02:15:08;8.67;;;1.80;;
54983;SDS011;40884;53.562;9.940;2023-05-17T02:16:08;10.50;;;2.80;;
54983;SDS011;40884;53.562;9.940;2023-05-17T02:17:08;9.23;;;2.40;;
54983;SDS011;40884;53.562;9.940;2023-05-17T02:18:08;11.27;;;2.27;;
54983;SDS011;40884;53.562;9.940;2023-05-17T02:19:08;9.13;;;2.13;;
54983;SDS011;40884;53.562;9.940;2023-05-17T02:20:08;11.93;;;2.33;;
54983;SDS011;40884;53.562;9.940;2023-05-17T02:21:08;10.00;;;2.43;;
54983;SDS011;40884;53.562;9.940;2023-05-17T02:22:10;10.43;;;2.43;;
54983;SDS011;40884;53.562;9.940;2023-05-17T02:23:10;9.03;;;2.30;;
54983;SDS011;40884;53.562;9.940;2023-05-17T02:24:10;7.87;;;2.10;;
54983;SDS011;40884;53.562;9.940;2023-05-17T02:25:10;13.77;;;2.50;;
54983;SDS011;40884;53.562;9.940;2023-05-17T02:26:12;9.43;;;2.40;;
54983;SDS011;40884;53.562;9.940;2023-05-17T02:27:12;10.13;;;2.43;;
54983;SDS011;40884;53.562;9.940;2023-05-17T02:28:12;10.83;;;2.30;;
54983;SDS011;40884;53.562;9.940;2023-05-17T02:29:13;9.13;;;2.10;;
54983;SDS011;40884;53.562;9.940;2023-05-17T02:30:13;10.87;;;2.10;;
54983;SDS011;40884;53.562;9.940;2023-05-17T02:31:13;8.00;;;2.60;;
54983;SDS011;40884;53.562;9.940;2023-05-17T02:32:13;12.20;;;2.37;;
54983;SDS011;40884;53.562;9.940;2023-05-17T02:33:14;12.33;;;2.03;;
54983;SDS011;40884;53.562;9.940;2023-05-17T02:34:14;8.93;;;2.10;;
54983;SDS011;40884;53.562;9.940;2023-05-17T02:35:14;7.63;;;1.93;;
54983;SDS011;40884;53.562;9.940;2023-05-17T02:36:15;6.93;;;1.67;;
54983;SDS011;40884;53.562;9.940;2023-05-17T02:37:15;12.47;;;2.23;;
54983;SDS011;40884;53.562;9.940;2023-05-17T02:38:17;8.83;;;2.10;;
54983;SDS011;40884;53.562;9.940;2023-05-17T02:39:18;9.17;;;2.10;;
54983;SDS011;40884;53.562;9.940;2023-05-17T02:40:18;11.57;;;2.13;;
54983;SDS011;40884;53.562;9.940;2023-05-17T02:41:18;9.50;;;2.27;;
54983;SDS011;40884;53.562;9.940;2023-05-17T02:42:18;8.33;;;2.00;;
54983;SDS011;40884;53.562;9.940;2023-05-17T02:43:18;9.17;;;1.90;;
54983;SDS011;40884;53.562;9.940;2023-05-17T02:44:18;6.57;;;2.43;;
54983;SDS011;40884;53.562;9.940;2023-05-17T02:45:18;8.63;;;1.87;;
54983;SDS011;40884;53.562;9.940;2023-05-17T02:46:19;10.73;;;2.20;;
54983;SDS011;40884;53.562;9.940;2023-05-17T02:47:19;6.77;;;1.97;;
54983;SDS011;40884;53.562;9.940;2023-05-17T02:48:19;10.87;;;2.43;;
54983;SDS011;40884;53.562;9.940;2023-05-17T02:49:19;10.63;;;2.60;;
54983;SDS011;40884;53.562;9.940;2023-05-17T02:50:19;10.47;;;2.40;;
54983;SDS011;40884;53.562;9.940;2023-05-17T02:51:20;11.57;;;2.20;;
54983;SDS011;40884;53.562;9.940;2023-05-17T02:52:20;9.40;;;2.07;;
54983;SDS011;40884;53.562;9.940;2023-05-17T02:53:20;10.83;;;2.33;;
54983;SDS011;40884;53.562;9.940;2023-05-17T02:54:20;9.77;;;2.13;;
54983;SDS011;40884;53.562;9.940;2023-05-17T02:55:20;10.00;;;2.53;;
54983;SDS011;40884;53.562;9.940;2023-05-17T02:56:21;10.50;;;2.77;;
54983;SDS011;40884;53.562;9.940;2023-05-17T02:57:21;7.50;;;1.83;;
54983;SDS011;40884;53.562;9.940;2023-05-17T02:58:21;7.67;;;1.83;;
54983;SDS011;40884;53.562;9.940;2023-05-17T02:59:21;6.40;;;1.67;;
54983;SDS011;40884;53.562;9.940;2023-05-17T03:00:21;11.13;;;2.00;;
54983;SDS011;40884;53.562;9.940;2023-05-17T03:01:22;8.17;;;2.20;;
54983;SDS011;40884;53.562;9.940;2023-05-17T03:02:22;12.13;;;2.40;;
54983;SDS011;40884;53.562;9.940;2023-05-17T03:03:22;8.20;;;1.50;;
54983;SDS011;40884;53.562;9.940;2023-05-17T03:04:22;9.13;;;2.00;;
54983;SDS011;40884;53.562;9.940;2023-05-17T03:05:22;11.30;;;2.10;;
54983;SDS011;40884;53.562;9.940;2023-05-17T03:06:25;12.03;;;2.23;;
54983;SDS011;40884;53.562;9.940;2023-05-17T03:07:26;8.13;;;2.20;;
54983;SDS011;40884;53.562;9.940;2023-05-17T03:08:26;7.37;;;2.10;;
54983;SDS011;40884;53.562;9.940;2023-05-17T03:09:26;9.63;;;2.13;;
54983;SDS011;40884;53.562;9.940;2023-05-17T03:10:26;11.40;;;2.37;;
54983;SDS011;40884;53.562;9.940;2023-05-17T03:11:26;8.87;;;2.27;;
54983;SDS011;40884;53.562;9.940;2023-05-17T03:12:28;6.27;;;2.00;;
54983;SDS011;40884;53.562;9.940;2023-05-17T03:13:28;8.83;;;2.10;;
54983;SDS011;40884;53.562;9.940;2023-05-17T03:14:29;11.03;;;1.70;;
54983;SDS011;40884;53.562;9.940;2023-05-17T03:15:29;7.50;;;2.13;;
54983;SDS011;40884;53.562;9.940;2023-05-17T03:16:29;9.20;;;2.10;;
54983;SDS011;40884;53.562;9.940;2023-05-17T03:17:30;8.90;;;2.17;;
54983;SDS011;40884;53.562;9.940;2023-05-17T03:18:30;11.10;;;3.10;;
54983;SDS011;40884;53.562;9.940;2023-05-17T03:19:31;8.20;;;1.87;;
54983;SDS011;40884;53.562;9.940;2023-05-17T03:20:31;9.07;;;2.00;;
54983;SDS011;40884;53.562;9.940;2023-05-17T03:21:31;7.07;;;2.20;;
54983;SDS011;40884;53.562;9.940;2023-05-17T03:22:31;10.17;;;2.50;;
54983;SDS011;40884;53.562;9.940;2023-05-17T03:23:32;9.67;;;2.13;;
54983;SDS011;40884;53.562;9.940;2023-05-17T03:24:35;8.07;;;1.97;;
54983;SDS011;40884;53.562;9.940;2023-05-17T03:25:35;10.83;;;2.20;;
54983;SDS011;40884;53.562;9.940;2023-05-17T03:26:36;8.60;;;1.97;;
54983;SDS011;40884;53.562;9.940;2023-05-17T03:27:37;8.33;;;1.83;;
54983;SDS011;40884;53.562;9.940;2023-05-17T03:28:38;15.93;;;2.57;;
54983;SDS011;40884;53.562;9.940;2023-05-17T03:29:38;9.13;;;2.20;;
54983;SDS011;40884;53.562;9.940;2023-05-17T03:30:39;9.00;;;1.90;;
54983;SDS011;40884;53.562;9.940;2023-05-17T03:31:39;8.93;;;2.17;;
54983;SDS011;40884;53.562;9.940;2023-05-17T03:32:39;6.97;;;1.73;;
54983;SDS011;40884;53.562;9.940;2023-05-17T03:33:40;10.00;;;2.33;;
54983;SDS011;40884;53.562;9.940;2023-05-17T03:34:40;15.57;;;3.23;;
54983;SDS011;40884;53.562;9.940;2023-05-17T03:35:40;5.73;;;1.73;;
54983;SDS011;40884;53.562;9.940;2023-05-17T03:36:40;11.43;;;2.10;;
54983;SDS011;40884;53.562;9.940;2023-05-17T03:37:42;8.97;;;1.80;;
54983;SDS011;40884;53.562;9.940;2023-05-17T03:38:42;11.07;;;2.50;;
54983;SDS011;40884;53.562;9.940;2023-05-17T03:39:42;9.33;;;1.80;;
54983;SDS011;40884;53.562;9.940;2023-05-17T03:40:42;7.70;;;1.40;;
54983;SDS011;40884;53.562;9.940;2023-05-17T03:41:42;6.23;;;1.57;;
54983;SDS011;40884;53.562;9.940;2023-05-17T03:42:43;8.50;;;2.30;;
54983;SDS011;40884;53.562;9.940;2023-05-17T03:43:43;10.47;;;2.23;;
54983;SDS011;40884;53.562;9.940;2023-05-17T03:44:46;8.50;;;2.30;;
54983;SDS011;40884;53.562;9.940;2023-05-17T03:45:47;8.77;;;1.90;;
54983;SDS011;40884;53.562;9.940;2023-05-17T03:46:47;10.70;;;1.77;;
54983;SDS011;40884;53.562;9.940;2023-05-17T03:47:48;10.20;;;2.27;;
54983;SDS011;40884;53.562;9.940;2023-05-17T03:48:48;9.87;;;2.17;;
54983;SDS011;40884;53.562;9.940;2023-05-17T03:49:50;6.87;;;1.83;;
54983;SDS011;40884;53.562;9.940;2023-05-17T03:50:51;9.30;;;3.07;;
54983;SDS011;40884;53.562;9.940;2023-05-17T03:51:51;11.37;;;2.20;;
54983;SDS011;40884;53.562;9.940;2023-05-17T03:52:52;7.80;;;2.10;;
54983;SDS011;40884;53.562;9.940;2023-05-17T03:53:58;9.17;;;2.13;;
54983;SDS011;40884;53.562;9.940;2023-05-17T03:54:59;11.10;;;2.00;;
54983;SDS011;40884;53.562;9.940;2023-05-17T03:55:59;10.67;;;2.53;;
54983;SDS011;40884;53.562;9.940;2023-05-17T03:57:00;11.07;;;2.10;;
54983;SDS011;40884;53.562;9.940;2023-05-17T03:58:00;7.83;;;2.03;;
54983;SDS011;40884;53.562;9.940;2023-05-17T03:59:00;9.87;;;2.57;;
54983;SDS011;40884;53.562;9.940;2023-05-17T04:00:00;17.63;;;2.70;;
54983;SDS011;40884;53.562;9.940;2023-05-17T04:01:01;9.63;;;2.70;;
54983;SDS011;40884;53.562;9.940;2023-05-17T04:02:01;9.40;;;2.00;;
54983;SDS011;40884;53.562;9.940;2023-05-17T04:03:02;10.43;;;2.53;;
54983;SDS011;40884;53.562;9.940;2023-05-17T04:04:03;9.93;;;2.47;;
54983;SDS011;40884;53.562;9.940;2023-05-17T04:05:03;11.67;;;2.80;;
54983;SDS011;40884;53.562;9.940;2023-05-17T04:06:04;7.03;;;1.73;;
54983;SDS011;40884;53.562;9.940;2023-05-17T04:07:04;12.17;;;2.27;;
54983;SDS011;40884;53.562;9.940;2023-05-17T04:08:05;9.23;;;2.40;;
54983;SDS011;40884;53.562;9.940;2023-05-17T04:09:05;8.73;;;2.30;;
54983;SDS011;40884;53.562;9.940;2023-05-17T04:10:05;10.93;;;2.00;;
54983;SDS011;40884;53.562;9.940;2023-05-17T04:11:05;11.00;;;2.40;;
54983;SDS011;40884;53.562;9.940;2023-05-17T04:12:06;6.17;;;2.10;;
54983;SDS011;40884;53.562;9.940;2023-05-17T04:13:06;9.27;;;2.30;;
54983;SDS011;40884;53.562;9.940;2023-05-17T04:14:06;12.27;;;2.30;;
54983;SDS011;40884;53.562;9.940;2023-05-17T04:15:07;10.43;;;2.27;;
54983;SDS011;40884;53.562;9.940;2023-05-17T04:16:09;11.37;;;2.50;;
54983;SDS011;40884;53.562;9.940;2023-05-17T04:17:10;14.60;;;2.50;;
54983;SDS011;40884;53.562;9.940;2023-05-17T04:18:11;9.70;;;2.60;;
54983;SDS011;40884;53.562;9.940;2023-05-17T04:19:12;6.77;;;2.17;;
54983;SDS011;40884;53.562;9.940;2023-05-17T04:20:13;11.13;;;2.37;;
54983;SDS011;40884;53.562;9.940;2023-05-17T04:21:13;10.37;;;2.43;;
54983;SDS011;40884;53.562;9.940;2023-05-17T04:22:14;10.83;;;2.50;;
54983;SDS011;40884;53.562;9.940;2023-05-17T04:23:14;12.10;;;2.50;;
54983;SDS011;40884;53.562;9.940;2023-05-17T04:24:15;8.37;;;1.90;;
54983;SDS011;40884;53.562;9.940;2023-05-17T04:25:15;11.23;;;2.27;;
54983;SDS011;40884;53.562;9.940;2023-05-17T04:26:15;13.77;;;3.30;;
54983;SDS011;40884;53.562;9.940;2023-05-17T04:27:16;10.43;;;2.30;;
54983;SDS011;40884;53.562;9.940;2023-05-17T04:28:16;13.47;;;2.27;;
54983;SDS011;40884;53.562;9.940;2023-05-17T04:29:16;10.47;;;2.40;;
54983;SDS011;40884;53.562;9.940;2023-05-17T04:30:16;8.33;;;2.17;;
54983;SDS011;40884;53.562;9.940;2023-05-17T04:31:17;11.97;;;2.87;;
54983;SDS011;40884;53.562;9.940;2023-05-17T04:32:19;7.53;;;2.47;;
54983;SDS011;40884;53.562;9.940;2023-05-17T04:33:19;14.63;;;2.63;;
54983;SDS011;40884;53.562;9.940;2023-05-17T04:34:19;7.40;;;2.10;;
54983;SDS011;40884;53.562;9.940;2023-05-17T04:35:19;13.17;;;2.63;;
54983;SDS011;40884;53.562;9.940;2023-05-17T04:36:23;10.47;;;2.43;;
54983;SDS011;40884;53.562;9.940;2023-05-17T04:37:24;9.93;;;2.03;;
54983;SDS011;40884;53.562;9.940;2023-05-17T04:38:27;8.97;;;2.20;;
54983;SDS011;40884;53.562;9.940;2023-05-17T04:39:28;8.37;;;2.07;;
54983;SDS011;40884;53.562;9.940;2023-05-17T04:40:28;8.10;;;2.20;;
54983;SDS011;40884;53.562;9.940;2023-05-17T04:41:29;13.47;;;2.67;;
54983;SDS011;40884;53.562;9.940;2023-05-17T04:42:29;12.70;;;2.67;;
54983;SDS011;40884;53.562;9.940;2023-05-17T04:43:31;12.43;;;2.60;;
54983;SDS011;40884;53.562;9.940;2023-05-17T04:44:32;8.07;;;2.13;;
54983;SDS011;40884;53.562;9.940;2023-05-17T04:45:32;10.83;;;2.30;;
54983;SDS011;40884;53.562;9.940;2023-05-17T04:46:34;13.17;;;2.60;;
54983;SDS011;40884;53.562;9.940;2023-05-17T04:47:34;10.27;;;2.10;;
54983;SDS011;40884;53.562;9.940;2023-05-17T04:48:34;10.17;;;2.27;;
54983;SDS011;40884;53.562;9.940;2023-05-17T04:49:34;12.93;;;2.83;;
54983;SDS011;40884;53.562;9.940;2023-05-17T04:50:35;9.10;;;2.33;;
54983;SDS011;40884;53.562;9.940;2023-05-17T04:51:35;12.43;;;1.97;;
54983;SDS011;40884;53.562;9.940;2023-05-17T04:52:36;11.70;;;2.40;;
54983;SDS011;40884;53.562;9.940;2023-05-17T04:53:36;10.30;;;2.20;;
54983;SDS011;40884;53.562;9.940;2023-05-17T04:54:41;13.47;;;2.67;;
54983;SDS011;40884;53.562;9.940;2023-05-17T04:55:42;8.93;;;2.27;;
54983;SDS011;40884;53.562;9.940;2023-05-17T04:56:42;14.73;;;2.67;;
54983;SDS011;40884;53.562;9.940;2023-05-17T04:57:48;9.23;;;2.37;;
54983;SDS011;40884;53.562;9.940;2023-05-17T04:58:49;11.80;;;2.77;;
54983;SDS011;40884;53.562;9.940;2023-05-17T04:59:50;9.27;;;2.07;;
54983;SDS011;40884;53.562;9.940;2023-05-17T05:00:51;12.43;;;2.47;;
54983;SDS011;40884;53.562;9.940;2023-05-17T05:01:51;10.23;;;2.30;;
54983;SDS011;40884;53.562;9.940;2023-05-17T05:02:51;10.70;;;2.67;;
54983;SDS011;40884;53.562;9.940;2023-05-17T05:03:51;9.93;;;2.30;;
54983;SDS011;40884;53.562;9.940;2023-05-17T05:04:51;11.00;;;2.63;;
54983;SDS011;40884;53.562;9.940;2023-05-17T05:05:52;9.07;;;2.30;;
54983;SDS011;40884;53.562;9.940;2023-05-17T05:06:52;12.90;;;2.60;;
54983;SDS011;40884;53.562;9.940;2023-05-17T05:07:53;11.43;;;3.10;;
54983;SDS011;40884;53.562;9.940;2023-05-17T05:08:54;11.80;;;2.43;;
54983;SDS011;40884;53.562;9.940;2023-05-17T05:09:54;12.23;;;2.27;;
54983;SDS011;40884;53.562;9.940;2023-05-17T05:10:56;12.70;;;2.80;;
54983;SDS011;40884;53.562;9.940;2023-05-17T05:11:57;10.53;;;2.40;;
54983;SDS011;40884;53.562;9.940;2023-05-17T05:12:58;11.93;;;2.63;;
54983;SDS011;40884;53.562;9.940;2023-05-17T05:13:58;10.57;;;2.97;;
54983;SDS011;40884;53.562;9.940;2023-05-17T05:14:58;12.07;;;2.73;;
54983;SDS011;40884;53.562;9.940;2023-05-17T05:15:59;10.90;;;2.67;;
54983;SDS011;40884;53.562;9.940;2023-05-17T05:16:59;13.00;;;2.57;;
54983;SDS011;40884;53.562;9.940;2023-05-17T05:17:59;10.80;;;2.10;;
54983;SDS011;40884;53.562;9.940;2023-05-17T05:19:00;11.77;;;2.50;;
54983;SDS011;40884;53.562;9.940;2023-05-17T05:20:00;12.77;;;3.03;;
54983;SDS011;40884;53.562;9.940;2023-05-17T05:21:00;14.07;;;2.60;;
54983;SDS011;40884;53.562;9.940;2023-05-17T05:22:01;9.17;;;2.50;;
54983;SDS011;40884;53.562;9.940;2023-05-17T05:23:02;10.03;;;2.73;;
54983;SDS011;40884;53.562;9.940;2023-05-17T05:24:03;15.33;;;2.83;;
54983;SDS011;40884;53.562;9.940;2023-05-17T05:25:03;11.37;;;2.30;;
54983;SDS011;40884;53.562;9.940;2023-05-17T05:26:04;12.13;;;2.33;;
54983;SDS011;40884;53.562;9.940;2023-05-17T05:27:04;11.77;;;2.67;;
54983;SDS011;40884;53.562;9.940;2023-05-17T05:28:04;9.80;;;2.97;;
54983;SDS011;40884;53.562;9.940;2023-05-17T05:29:05;13.17;;;2.60;;
54983;SDS011;40884;53.562;9.940;2023-05-17T05:30:06;16.20;;;3.40;;
54983;SDS011;40884;53.562;9.940;2023-05-17T05:31:07;12.37;;;2.70;;
54983;SDS011;40884;53.562;9.940;2023-05-17T05:32:14;11.67;;;2.63;;
54983;SDS011;40884;53.562;9.940;2023-05-17T05:33:18;13.60;;;3.40;;
54983;SDS011;40884;53.562;9.940;2023-05-17T05:34:19;9.17;;;2.67;;
54983;SDS011;40884;53.562;9.940;2023-05-17T05:35:19;11.63;;;2.30;;
54983;SDS011;40884;53.562;9.940;2023-05-17T05:36:20;11.40;;;2.30;;
54983;SDS011;40884;53.562;9.940;2023-05-17T05:37:20;12.57;;;2.67;;
54983;SDS011;40884;53.562;9.940;2023-05-17T05:38:21;10.27;;;2.57;;
54983;SDS011;40884;53.562;9.940;2023-05-17T05:39:21;10.67;;;2.23;;
54983;SDS011;40884;53.562;9.940;2023-05-17T05:40:21;8.93;;;2.13;;
54983;SDS011;40884;53.562;9.940;2023-05-17T05:41:21;8.73;;;2.13;;
54983;SDS011;40884;53.562;9.940;2023-05-17T05:42:22;10.60;;;2.40;;
54983;SDS011;40884;53.562;9.940;2023-05-17T05:43:22;11.03;;;2.47;;
54983;SDS011;40884;53.562;9.940;2023-05-17T05:44:22;12.87;;;2.57;;
54983;SDS011;40884;53.562;9.940;2023-05-17T05:45:22;10.70;;;3.03;;
54983;SDS011;40884;53.562;9.940;2023-05-17T05:46:25;13.87;;;2.97;;
54983;SDS011;40884;53.562;9.940;2023-05-17T05:47:26;9.80;;;2.23;;
54983;SDS011;40884;53.562;9.940;2023-05-17T05:48:26;11.63;;;2.33;;
54983;SDS011;40884;53.562;9.940;2023-05-17T05:49:26;14.10;;;2.43;;
54983;SDS011;40884;53.562;9.940;2023-05-17T05:50:27;10.73;;;2.37;;
54983;SDS011;40884;53.562;9.940;2023-05-17T05:51:31;9.30;;;2.13;;
54983;SDS011;40884;53.562;9.940;2023-05-17T05:52:31;11.40;;;3.20;;
54983;SDS011;40884;53.562;9.940;2023-05-17T05:53:32;8.63;;;2.30;;
54983;SDS011;40884;53.562;9.940;2023-05-17T05:54:32;8.17;;;1.53;;
54983;SDS011;40884;53.562;9.940;2023-05-17T05:55:32;9.23;;;2.40;;
54983;SDS011;40884;53.562;9.940;2023-05-17T05:56:33;8.30;;;2.10;;
54983;SDS011;40884;53.562;9.940;2023-05-17T05:57:33;7.50;;;2.03;;
54983;SDS011;40884;53.562;9.940;2023-05-17T05:58:33;10.47;;;2.40;;
54983;SDS011;40884;53.562;9.940;2023-05-17T05:59:34;8.93;;;2.33;;
54983;SDS011;40884;53.562;9.940;2023-05-17T06:00:34;6.30;;;2.07;;
54983;SDS011;40884;53.562;9.940;2023-05-17T06:01:34;9.90;;;2.60;;
54983;SDS011;40884;53.562;9.940;2023-05-17T06:02:35;10.27;;;2.63;;
54983;SDS011;40884;53.562;9.940;2023-05-17T06:03:35;5.13;;;1.23;;
54983;SDS011;40884;53.562;9.940;2023-05-17T06:04:36;6.90;;;2.17;;
54983;SDS011;40884;53.562;9.940;2023-05-17T06:05:36;9.83;;;2.30;;
54983;SDS011;40884;53.562;9.940;2023-05-17T06:06:36;5.17;;;1.67;;
54983;SDS011;40884;53.562;9.940;2023-05-17T06:07:36;9.50;;;2.33;;
54983;SDS011;40884;53.562;9.940;2023-05-17T06:08:36;11.03;;;1.90;;
54983;SDS011;40884;53.562;9.940;2023-05-17T06:09:36;7.57;;;2.30;;